sensor_id;sensor_type;location;lat;lon;timestamp;temperature;humidity
67899;DHT22;54699;51.796;10.956;2023-10-13T00:01:09;21.60;63.40
67899;DHT22;54699;51.796;10.956;2023-10-13T00:03:38;21.60;63.40
67899;DHT22;54699;51.796;10.956;2023-10-13T00:06:05;21.60;63.50
67899;DHT22;54699;51.796;10.956;2023-10-13T00:08:34;21.60;63.50
67899;DHT22;54699;51.796;10.956;2023-10-13T00:11:02;21.60;63.50
67899;DHT22;54699;51.796;10.956;2023-10-13T00:13:30;21.60;63.50
67899;DHT22;54699;51.796;10.956;2023-10-13T00:16:06;21.60;63.50
67899;DHT22;54699;51.796;10.956;2023-10-13T00:18:36;21.60;63.50
67899;DHT22;54699;51.796;10.956;2023-10-13T00:21:07;21.60;63.50
67899;DHT22;54699;51.796;10.956;2023-10-13T00:23:39;21.60;63.50
67899;DHT22;54699;51.796;10.956;2023-10-13T00:26:08;21.60;63.50
67899;DHT22;54699;51.796;10.956;2023-10-13T00:28:36;21.60;63.50
67899;DHT22;54699;51.796;10.956;2023-10-13T00:31:10;21.60;63.50
67899;DHT22;54699;51.796;10.956;2023-10-13T00:33:38;21.60;63.60
67899;DHT22;54699;51.796;10.956;2023-10-13T00:36:07;21.60;63.60
67899;DHT22;54699;51.796;10.956;2023-10-13T00:38:34;21.60;63.60
67899;DHT22;54699;51.796;10.956;2023-10-13T00:41:02;21.60;63.60
67899;DHT22;54699;51.796;10.956;2023-10-13T00:43:44;21.60;63.50
67899;DHT22;54699;51.796;10.956;2023-10-13T00:46:29;21.60;63.60
67899;DHT22;54699;51.796;10.956;2023-10-13T00:49:00;21.60;63.60
67899;DHT22;54699;51.796;10.956;2023-10-13T00:51:30;21.60;63.60
67899;DHT22;54699;51.796;10.956;2023-10-13T00:54:01;21.60;63.60
67899;DHT22;54699;51.796;10.956;2023-10-13T00:56:33;21.60;63.60
67899;DHT22;54699;51.796;10.956;2023-10-13T00:58:59;21.60;63.60
67899;DHT22;54699;51.796;10.956;2023-10-13T01:01:27;21.60;63.60
67899;DHT22;54699;51.796;10.956;2023-10-13T01:03:59;21.60;63.60
67899;DHT22;54699;51.796;10.956;2023-10-13T01:06:27;21.60;63.60
67899;DHT22;54699;51.796;10.956;2023-10-13T01:08:58;21.60;63.70
67899;DHT22;54699;51.796;10.956;2023-10-13T01:11:37;21.60;63.70
67899;DHT22;54699;51.796;10.956;2023-10-13T01:14:04;21.60;63.70
67899;DHT22;54699;51.796;10.956;2023-10-13T01:16:30;21.60;63.60
67899;DHT22;54699;51.796;10.956;2023-10-13T01:18:57;21.60;63.60
67899;DHT22;54699;51.796;10.956;2023-10-13T01:21:25;21.60;63.60
67899;DHT22;54699;51.796;10.956;2023-10-13T01:23:55;21.60;63.70
67899;DHT22;54699;51.796;10.956;2023-10-13T01:26:21;21.60;63.60
67899;DHT22;54699;51.796;10.956;2023-10-13T01:28:49;21.60;63.60
67899;DHT22;54699;51.796;10.956;2023-10-13T01:31:16;21.60;63.60
67899;DHT22;54699;51.796;10.956;2023-10-13T01:33:52;21.60;63.70
67899;DHT22;54699;51.796;10.956;2023-10-13T01:36:20;21.60;63.70
67899;DHT22;54699;51.796;10.956;2023-10-13T01:38:47;21.60;63.70
67899;DHT22;54699;51.796;10.956;2023-10-13T01:41:15;21.60;63.70
67899;DHT22;54699;51.796;10.956;2023-10-13T01:43:42;21.60;63.70
67899;DHT22;54699;51.796;10.956;2023-10-13T01:46:08;21.60;63.70
67899;DHT22;54699;51.796;10.956;2023-10-13T01:48:39;21.60;63.80
67899;DHT22;54699;51.796;10.956;2023-10-13T01:51:05;21.60;63.70
67899;DHT22;54699;51.796;10.956;2023-10-13T01:53:35;21.60;63.70
67899;DHT22;54699;51.796;10.956;2023-10-13T01:56:02;21.60;63.70
67899;DHT22;54699;51.796;10.956;2023-10-13T01:58:37;21.60;63.70
67899;DHT22;54699;51.796;10.956;2023-10-13T02:01:07;21.60;63.70
67899;DHT22;54699;51.796;10.956;2023-10-13T02:03:34;21.50;63.80
67899;DHT22;54699;51.796;10.956;2023-10-13T02:06:06;21.60;63.70
67899;DHT22;54699;51.796;10.956;2023-10-13T02:08:36;21.60;64.70
67899;DHT22;54699;51.796;10.956;2023-10-13T02:11:06;21.60;63.70
67899;DHT22;54699;51.796;10.956;2023-10-13T02:13:33;21.60;63.80
67899;DHT22;54699;51.796;10.956;2023-10-13T02:16:07;21.50;63.70
67899;DHT22;54699;51.796;10.956;2023-10-13T02:18:37;21.60;63.80
67899;DHT22;54699;51.796;10.956;2023-10-13T02:21:07;21.60;63.80
67899;DHT22;54699;51.796;10.956;2023-10-13T02:23:38;21.60;63.80
67899;DHT22;54699;51.796;10.956;2023-10-13T02:26:10;21.60;63.80
67899;DHT22;54699;51.796;10.956;2023-10-13T02:28:37;21.50;63.80
67899;DHT22;54699;51.796;10.956;2023-10-13T02:31:04;21.60;63.80
67899;DHT22;54699;51.796;10.956;2023-10-13T02:33:33;21.60;63.90
67899;DHT22;54699;51.796;10.956;2023-10-13T02:36:00;21.50;63.80
67899;DHT22;54699;51.796;10.956;2023-10-13T02:38:30;21.60;63.80
67899;DHT22;54699;51.796;10.956;2023-10-13T02:41:00;21.60;63.80
67899;DHT22;54699;51.796;10.956;2023-10-13T02:43:32;21.60;63.90
67899;DHT22;54699;51.796;10.956;2023-10-13T02:45:59;21.50;63.90
67899;DHT22;54699;51.796;10.956;2023-10-13T02:48:27;21.50;63.80
67899;DHT22;54699;51.796;10.956;2023-10-13T02:51:06;21.50;63.90
67899;DHT22;54699;51.796;10.956;2023-10-13T02:53:41;21.60;63.90
67899;DHT22;54699;51.796;10.956;2023-10-13T02:56:07;21.50;63.90
67899;DHT22;54699;51.796;10.956;2023-10-13T02:58:38;21.50;63.80
67899;DHT22;54699;51.796;10.956;2023-10-13T03:01:06;21.50;63.90
67899;DHT22;54699;51.796;10.956;2023-10-13T03:03:43;21.50;63.90
67899;DHT22;54699;51.796;10.956;2023-10-13T03:06:14;21.50;63.80
67899;DHT22;54699;51.796;10.956;2023-10-13T03:08:42;21.50;63.80
67899;DHT22;54699;51.796;10.956;2023-10-13T03:11:08;21.50;63.90
67899;DHT22;54699;51.796;10.956;2023-10-13T03:13:36;21.50;63.90
67899;DHT22;54699;51.796;10.956;2023-10-13T03:16:10;21.60;64.00
67899;DHT22;54699;51.796;10.956;2023-10-13T03:18:38;21.50;63.80
67899;DHT22;54699;51.796;10.956;2023-10-13T03:21:03;21.50;63.90
67899;DHT22;54699;51.796;10.956;2023-10-13T03:23:34;21.50;63.80
67899;DHT22;54699;51.796;10.956;2023-10-13T03:26:11;21.50;63.80
67899;DHT22;54699;51.796;10.956;2023-10-13T03:28:41;21.50;63.80
67899;DHT22;54699;51.796;10.956;2023-10-13T03:31:12;21.50;63.90
67899;DHT22;54699;51.796;10.956;2023-10-13T03:33:43;21.50;63.90
67899;DHT22;54699;51.796;10.956;2023-10-13T03:36:11;21.50;63.80
67899;DHT22;54699;51.796;10.956;2023-10-13T03:39:02;21.50;63.90
67899;DHT22;54699;51.796;10.956;2023-10-13T03:41:32;21.50;63.80
67899;DHT22;54699;51.796;10.956;2023-10-13T03:44:02;21.50;63.80
67899;DHT22;54699;51.796;10.956;2023-10-13T03:46:38;21.50;63.80
67899;DHT22;54699;51.796;10.956;2023-10-13T03:49:06;21.50;63.90
67899;DHT22;54699;51.796;10.956;2023-10-13T03:51:38;21.50;63.80
67899;DHT22;54699;51.796;10.956;2023-10-13T03:54:06;21.50;63.90
67899;DHT22;54699;51.796;10.956;2023-10-13T03:56:33;21.50;63.80
67899;DHT22;54699;51.796;10.956;2023-10-13T03:59:07;21.50;63.90
67899;DHT22;54699;51.796;10.956;2023-10-13T04:01:42;21.50;63.90
67899;DHT22;54699;51.796;10.956;2023-10-13T04:04:12;21.50;63.80
67899;DHT22;54699;51.796;10.956;2023-10-13T04:06:41;21.50;63.90
67899;DHT22;54699;51.796;10.956;2023-10-13T04:09:29;21.50;63.90
67899;DHT22;54699;51.796;10.956;2023-10-13T04:12:13;21.50;63.90
67899;DHT22;54699;51.796;10.956;2023-10-13T04:15:08;21.50;63.90
67899;DHT22;54699;51.796;10.956;2023-10-13T04:17:46;21.20;63.70
67899;DHT22;54699;51.796;10.956;2023-10-13T04:20:14;21.00;64.50
67899;DHT22;54699;51.796;10.956;2023-10-13T04:22:52;20.90;64.90
67899;DHT22;54699;51.796;10.956;2023-10-13T04:25:38;20.80;64.90
67899;DHT22;54699;51.796;10.956;2023-10-13T04:28:17;20.60;65.20
67899;DHT22;54699;51.796;10.956;2023-10-13T04:30:59;20.50;65.40
67899;DHT22;54699;51.796;10.956;2023-10-13T04:33:37;20.50;65.60
67899;DHT22;54699;51.796;10.956;2023-10-13T04:36:16;20.50;65.70
67899;DHT22;54699;51.796;10.956;2023-10-13T04:38:54;20.50;65.60
67899;DHT22;54699;51.796;10.956;2023-10-13T04:41:27;20.40;65.80
67899;DHT22;54699;51.796;10.956;2023-10-13T04:43:57;20.30;65.90
67899;DHT22;54699;51.796;10.956;2023-10-13T04:46:29;20.50;65.70
67899;DHT22;54699;51.796;10.956;2023-10-13T04:49:19;20.40;65.50
67899;DHT22;54699;51.796;10.956;2023-10-13T04:51:54;20.40;65.90
67899;DHT22;54699;51.796;10.956;2023-10-13T04:54:38;20.40;65.80
67899;DHT22;54699;51.796;10.956;2023-10-13T04:57:12;20.30;66.00
67899;DHT22;54699;51.796;10.956;2023-10-13T05:00:03;20.50;66.00
67899;DHT22;54699;51.796;10.956;2023-10-13T05:02:53;20.30;66.20
67899;DHT22;54699;51.796;10.956;2023-10-13T05:05:37;20.20;66.60
67899;DHT22;54699;51.796;10.956;2023-10-13T05:08:27;20.40;66.70
67899;DHT22;54699;51.796;10.956;2023-10-13T05:11:11;20.30;66.60
67899;DHT22;54699;51.796;10.956;2023-10-13T05:13:57;20.30;66.50
67899;DHT22;54699;51.796;10.956;2023-10-13T05:16:42;20.40;66.40
67899;DHT22;54699;51.796;10.956;2023-10-13T05:19:26;20.30;66.10
67899;DHT22;54699;51.796;10.956;2023-10-13T05:22:10;20.40;66.30
67899;DHT22;54699;51.796;10.956;2023-10-13T05:24:55;20.40;66.30
67899;DHT22;54699;51.796;10.956;2023-10-13T05:27:39;20.30;66.10
67899;DHT22;54699;51.796;10.956;2023-10-13T05:30:25;20.20;66.60
67899;DHT22;54699;51.796;10.956;2023-10-13T05:33:09;20.30;66.50
67899;DHT22;54699;51.796;10.956;2023-10-13T05:35:53;20.40;66.40
67899;DHT22;54699;51.796;10.956;2023-10-13T05:38:37;20.40;66.30
67899;DHT22;54699;51.796;10.956;2023-10-13T05:41:24;20.50;66.10
67899;DHT22;54699;51.796;10.956;2023-10-13T05:44:08;20.40;66.20
67899;DHT22;54699;51.796;10.956;2023-10-13T05:46:54;20.30;66.30
67899;DHT22;54699;51.796;10.956;2023-10-13T05:50:09;20.40;66.30
67899;DHT22;54699;51.796;10.956;2023-10-13T05:52:53;20.60;66.20
67899;DHT22;54699;51.796;10.956;2023-10-13T05:55:38;20.60;66.20
67899;DHT22;54699;51.796;10.956;2023-10-13T05:58:21;20.50;66.20
67899;DHT22;54699;51.796;10.956;2023-10-13T06:01:11;20.60;66.30
67899;DHT22;54699;51.796;10.956;2023-10-13T06:03:58;20.70;65.90
67899;DHT22;54699;51.796;10.956;2023-10-13T06:06:43;20.70;66.10
67899;DHT22;54699;51.796;10.956;2023-10-13T06:09:27;20.70;66.00
67899;DHT22;54699;51.796;10.956;2023-10-13T06:12:11;20.80;65.70
67899;DHT22;54699;51.796;10.956;2023-10-13T06:14:52;20.80;65.50
67899;DHT22;54699;51.796;10.956;2023-10-13T06:17:37;20.60;65.80
67899;DHT22;54699;51.796;10.956;2023-10-13T06:20:19;20.70;65.90
67899;DHT22;54699;51.796;10.956;2023-10-13T06:23:11;20.60;65.80
67899;DHT22;54699;51.796;10.956;2023-10-13T06:25:57;20.60;66.20
67899;DHT22;54699;51.796;10.956;2023-10-13T06:28:41;20.60;66.00
67899;DHT22;54699;51.796;10.956;2023-10-13T06:31:09;20.80;65.80
67899;DHT22;54699;51.796;10.956;2023-10-13T06:33:46;20.80;65.90
67899;DHT22;54699;51.796;10.956;2023-10-13T06:36:14;20.70;66.40
67899;DHT22;54699;51.796;10.956;2023-10-13T06:38:43;20.80;65.80
67899;DHT22;54699;51.796;10.956;2023-10-13T06:41:10;20.80;65.60
67899;DHT22;54699;51.796;10.956;2023-10-13T06:43:45;20.80;65.80
67899;DHT22;54699;51.796;10.956;2023-10-13T06:46:25;20.80;65.90
67899;DHT22;54699;51.796;10.956;2023-10-13T06:48:54;20.80;65.90
67899;DHT22;54699;51.796;10.956;2023-10-13T06:51:26;20.80;66.90
67899;DHT22;54699;51.796;10.956;2023-10-13T06:53:56;20.80;66.10
67899;DHT22;54699;51.796;10.956;2023-10-13T06:56:23;20.80;66.20
67899;DHT22;54699;51.796;10.956;2023-10-13T06:58:53;20.80;66.40
67899;DHT22;54699;51.796;10.956;2023-10-13T07:01:25;20.70;66.40
67899;DHT22;54699;51.796;10.956;2023-10-13T07:03:52;20.70;66.70
67899;DHT22;54699;51.796;10.956;2023-10-13T07:06:19;20.60;66.90
67899;DHT22;54699;51.796;10.956;2023-10-13T07:08:47;20.60;67.10
67899;DHT22;54699;51.796;10.956;2023-10-13T07:11:18;20.50;67.30
67899;DHT22;54699;51.796;10.956;2023-10-13T07:13:58;20.60;67.70
67899;DHT22;54699;51.796;10.956;2023-10-13T07:16:34;20.60;67.20
67899;DHT22;54699;51.796;10.956;2023-10-13T07:19:02;20.60;67.40
67899;DHT22;54699;51.796;10.956;2023-10-13T07:21:32;20.40;67.30
67899;DHT22;54699;51.796;10.956;2023-10-13T07:24:00;20.50;67.90
67899;DHT22;54699;51.796;10.956;2023-10-13T07:26:33;20.50;67.50
67899;DHT22;54699;51.796;10.956;2023-10-13T07:29:06;20.60;67.40
67899;DHT22;54699;51.796;10.956;2023-10-13T07:31:34;20.70;67.50
67899;DHT22;54699;51.796;10.956;2023-10-13T07:34:03;20.60;67.70
67899;DHT22;54699;51.796;10.956;2023-10-13T07:36:38;20.40;67.60
67899;DHT22;54699;51.796;10.956;2023-10-13T07:39:10;20.50;67.90
67899;DHT22;54699;51.796;10.956;2023-10-13T07:41:46;20.70;67.80
67899;DHT22;54699;51.796;10.956;2023-10-13T07:44:19;20.70;68.20
67899;DHT22;54699;51.796;10.956;2023-10-13T07:46:51;20.80;68.20
67899;DHT22;54699;51.796;10.956;2023-10-13T07:49:28;20.80;68.00
67899;DHT22;54699;51.796;10.956;2023-10-13T07:51:58;20.80;68.00
67899;DHT22;54699;51.796;10.956;2023-10-13T07:54:43;20.80;68.20
67899;DHT22;54699;51.796;10.956;2023-10-13T07:57:13;20.80;68.10
67899;DHT22;54699;51.796;10.956;2023-10-13T07:59:41;20.80;68.10
67899;DHT22;54699;51.796;10.956;2023-10-13T08:02:13;20.70;68.40
67899;DHT22;54699;51.796;10.956;2023-10-13T08:04:58;20.70;68.70
67899;DHT22;54699;51.796;10.956;2023-10-13T08:07:26;20.80;68.60
67899;DHT22;54699;51.796;10.956;2023-10-13T08:09:55;20.80;68.50
67899;DHT22;54699;51.796;10.956;2023-10-13T08:12:24;20.80;68.30
67899;DHT22;54699;51.796;10.956;2023-10-13T08:14:51;20.90;68.50
67899;DHT22;54699;51.796;10.956;2023-10-13T08:17:37;20.90;68.50
67899;DHT22;54699;51.796;10.956;2023-10-13T08:20:10;21.00;68.40
67899;DHT22;54699;51.796;10.956;2023-10-13T08:22:38;21.00;68.50
67899;DHT22;54699;51.796;10.956;2023-10-13T08:25:13;21.00;68.10
67899;DHT22;54699;51.796;10.956;2023-10-13T08:28:11;21.00;68.00
67899;DHT22;54699;51.796;10.956;2023-10-13T08:30:55;21.10;68.00
67899;DHT22;54699;51.796;10.956;2023-10-13T08:33:22;21.00;68.30
67899;DHT22;54699;51.796;10.956;2023-10-13T08:35:52;21.10;68.30
67899;DHT22;54699;51.796;10.956;2023-10-13T08:38:52;21.10;68.00
67899;DHT22;54699;51.796;10.956;2023-10-13T08:41:22;21.10;68.20
67899;DHT22;54699;51.796;10.956;2023-10-13T08:43:59;21.10;68.00
67899;DHT22;54699;51.796;10.956;2023-10-13T08:46:34;21.10;67.90
67899;DHT22;54699;51.796;10.956;2023-10-13T08:49:31;21.20;67.90
67899;DHT22;54699;51.796;10.956;2023-10-13T08:52:05;21.20;67.90
67899;DHT22;54699;51.796;10.956;2023-10-13T08:54:55;21.20;67.80
67899;DHT22;54699;51.796;10.956;2023-10-13T08:57:38;21.20;67.80
67899;DHT22;54699;51.796;10.956;2023-10-13T09:00:08;21.20;68.00
67899;DHT22;54699;51.796;10.956;2023-10-13T09:02:58;21.20;68.30
67899;DHT22;54699;51.796;10.956;2023-10-13T09:05:42;21.20;68.00
67899;DHT22;54699;51.796;10.956;2023-10-13T09:08:26;21.30;67.90
67899;DHT22;54699;51.796;10.956;2023-10-13T09:11:01;21.30;67.80
67899;DHT22;54699;51.796;10.956;2023-10-13T09:13:38;21.30;67.90
67899;DHT22;54699;51.796;10.956;2023-10-13T09:16:10;21.30;67.80
67899;DHT22;54699;51.796;10.956;2023-10-13T09:18:47;21.30;67.90
67899;DHT22;54699;51.796;10.956;2023-10-13T09:21:15;21.30;68.20
67899;DHT22;54699;51.796;10.956;2023-10-13T09:24:12;21.30;68.30
67899;DHT22;54699;51.796;10.956;2023-10-13T09:26:43;21.40;68.00
67899;DHT22;54699;51.796;10.956;2023-10-13T09:29:20;21.40;67.90
67899;DHT22;54699;51.796;10.956;2023-10-13T09:31:58;21.40;68.10
67899;DHT22;54699;51.796;10.956;2023-10-13T09:34:27;21.40;68.00
67899;DHT22;54699;51.796;10.956;2023-10-13T09:36:57;21.40;68.40
67899;DHT22;54699;51.796;10.956;2023-10-13T09:39:24;21.40;68.60
67899;DHT22;54699;51.796;10.956;2023-10-13T09:42:00;21.40;69.10
67899;DHT22;54699;51.796;10.956;2023-10-13T09:44:30;21.50;69.10
67899;DHT22;54699;51.796;10.956;2023-10-13T09:46:58;21.50;69.00
67899;DHT22;54699;51.796;10.956;2023-10-13T09:49:34;21.50;69.60
67899;DHT22;54699;51.796;10.956;2023-10-13T09:52:11;21.60;68.90
67899;DHT22;54699;51.796;10.956;2023-10-13T09:54:47;21.60;68.90
67899;DHT22;54699;51.796;10.956;2023-10-13T09:57:26;21.70;69.60
67899;DHT22;54699;51.796;10.956;2023-10-13T10:00:02;21.70;69.10
67899;DHT22;54699;51.796;10.956;2023-10-13T10:02:53;21.70;69.20
67899;DHT22;54699;51.796;10.956;2023-10-13T10:05:24;21.70;69.20
67899;DHT22;54699;51.796;10.956;2023-10-13T10:07:59;21.70;69.10
67899;DHT22;54699;51.796;10.956;2023-10-13T10:10:32;21.70;69.40
67899;DHT22;54699;51.796;10.956;2023-10-13T10:13:15;21.70;69.50
67899;DHT22;54699;51.796;10.956;2023-10-13T10:15:49;21.70;69.20
67899;DHT22;54699;51.796;10.956;2023-10-13T10:18:19;21.70;69.40
67899;DHT22;54699;51.796;10.956;2023-10-13T10:20:48;21.70;69.40
67899;DHT22;54699;51.796;10.956;2023-10-13T10:23:23;21.70;68.80
67899;DHT22;54699;51.796;10.956;2023-10-13T10:25:52;21.70;68.00
67899;DHT22;54699;51.796;10.956;2023-10-13T10:28:36;21.70;68.30
67899;DHT22;54699;51.796;10.956;2023-10-13T10:31:07;21.70;67.50
67899;DHT22;54699;51.796;10.956;2023-10-13T10:33:38;21.70;68.80
67899;DHT22;54699;51.796;10.956;2023-10-13T10:36:05;21.70;66.50
67899;DHT22;54699;51.796;10.956;2023-10-13T10:38:33;21.70;66.70
67899;DHT22;54699;51.796;10.956;2023-10-13T10:41:04;21.70;68.40
67899;DHT22;54699;51.796;10.956;2023-10-13T10:43:35;21.70;66.80
67899;DHT22;54699;51.796;10.956;2023-10-13T10:46:10;21.70;66.50
67899;DHT22;54699;51.796;10.956;2023-10-13T10:48:38;21.60;66.30
67899;DHT22;54699;51.796;10.956;2023-10-13T10:51:08;21.70;66.70
67899;DHT22;54699;51.796;10.956;2023-10-13T10:53:43;21.70;65.60
67899;DHT22;54699;51.796;10.956;2023-10-13T10:56:10;21.70;67.80
67899;DHT22;54699;51.796;10.956;2023-10-13T10:58:48;21.60;67.70
67899;DHT22;54699;51.796;10.956;2023-10-13T11:01:21;21.70;67.70
67899;DHT22;54699;51.796;10.956;2023-10-13T11:03:52;21.60;68.00
67899;DHT22;54699;51.796;10.956;2023-10-13T11:06:22;21.70;68.80
67899;DHT22;54699;51.796;10.956;2023-10-13T11:08:50;21.70;68.30
67899;DHT22;54699;51.796;10.956;2023-10-13T11:11:29;21.60;67.60
67899;DHT22;54699;51.796;10.956;2023-10-13T11:14:01;21.70;67.20
67899;DHT22;54699;51.796;10.956;2023-10-13T11:16:47;21.70;68.10
67899;DHT22;54699;51.796;10.956;2023-10-13T11:19:19;21.70;68.00
67899;DHT22;54699;51.796;10.956;2023-10-13T11:21:53;21.70;67.70
67899;DHT22;54699;51.796;10.956;2023-10-13T11:24:21;21.70;67.40
67899;DHT22;54699;51.796;10.956;2023-10-13T11:26:48;21.80;67.40
67899;DHT22;54699;51.796;10.956;2023-10-13T11:29:16;21.80;68.20
67899;DHT22;54699;51.796;10.956;2023-10-13T11:31:45;21.80;68.60
67899;DHT22;54699;51.796;10.956;2023-10-13T11:34:20;21.90;67.70
67899;DHT22;54699;51.796;10.956;2023-10-13T11:36:47;21.90;67.70
67899;DHT22;54699;51.796;10.956;2023-10-13T11:39:13;21.80;68.30
67899;DHT22;54699;51.796;10.956;2023-10-13T11:41:48;21.90;67.60
67899;DHT22;54699;51.796;10.956;2023-10-13T11:44:19;22.00;68.10
67899;DHT22;54699;51.796;10.956;2023-10-13T11:46:57;22.00;68.10
67899;DHT22;54699;51.796;10.956;2023-10-13T11:49:55;22.10;67.60
67899;DHT22;54699;51.796;10.956;2023-10-13T11:52:23;22.10;67.30
67899;DHT22;54699;51.796;10.956;2023-10-13T11:54:54;22.00;67.50
67899;DHT22;54699;51.796;10.956;2023-10-13T11:57:21;22.00;68.30
67899;DHT22;54699;51.796;10.956;2023-10-13T11:59:48;22.10;68.20
67899;DHT22;54699;51.796;10.956;2023-10-13T12:02:45;22.10;68.30
67899;DHT22;54699;51.796;10.956;2023-10-13T12:05:31;22.10;66.60
67899;DHT22;54699;51.796;10.956;2023-10-13T12:08:14;22.20;68.20
67899;DHT22;54699;51.796;10.956;2023-10-13T12:10:47;22.20;68.30
67899;DHT22;54699;51.796;10.956;2023-10-13T12:13:25;22.20;68.30
67899;DHT22;54699;51.796;10.956;2023-10-13T12:15:53;22.20;68.30
67899;DHT22;54699;51.796;10.956;2023-10-13T12:18:23;22.20;67.70
67899;DHT22;54699;51.796;10.956;2023-10-13T12:20:53;22.20;67.80
67899;DHT22;54699;51.796;10.956;2023-10-13T12:23:22;22.30;67.90
67899;DHT22;54699;51.796;10.956;2023-10-13T12:25:56;22.30;67.40
67899;DHT22;54699;51.796;10.956;2023-10-13T12:28:31;22.40;67.50
67899;DHT22;54699;51.796;10.956;2023-10-13T12:31:05;22.40;67.60
67899;DHT22;54699;51.796;10.956;2023-10-13T12:33:37;22.40;67.70
67899;DHT22;54699;51.796;10.956;2023-10-13T12:36:06;22.40;67.30
67899;DHT22;54699;51.796;10.956;2023-10-13T12:38:35;22.40;67.50
67899;DHT22;54699;51.796;10.956;2023-10-13T12:41:19;22.50;66.90
67899;DHT22;54699;51.796;10.956;2023-10-13T12:44:05;22.50;67.50
67899;DHT22;54699;51.796;10.956;2023-10-13T12:46:50;22.60;67.60
67899;DHT22;54699;51.796;10.956;2023-10-13T12:49:39;22.60;67.60
67899;DHT22;54699;51.796;10.956;2023-10-13T12:52:17;22.60;68.00
67899;DHT22;54699;51.796;10.956;2023-10-13T12:54:45;22.60;67.60
67899;DHT22;54699;51.796;10.956;2023-10-13T12:57:20;22.60;68.00
67899;DHT22;54699;51.796;10.956;2023-10-13T12:59:48;22.70;68.10
67899;DHT22;54699;51.796;10.956;2023-10-13T13:02:15;22.60;68.00
67899;DHT22;54699;51.796;10.956;2023-10-13T13:04:43;22.70;68.20
67899;DHT22;54699;51.796;10.956;2023-10-13T13:07:10;22.70;68.20
67899;DHT22;54699;51.796;10.956;2023-10-13T13:09:39;22.70;68.10
67899;DHT22;54699;51.796;10.956;2023-10-13T13:12:06;22.70;67.80
67899;DHT22;54699;51.796;10.956;2023-10-13T13:14:33;22.80;68.00
67899;DHT22;54699;51.796;10.956;2023-10-13T13:17:00;22.80;67.90
67899;DHT22;54699;51.796;10.956;2023-10-13T13:19:31;22.80;67.90
67899;DHT22;54699;51.796;10.956;2023-10-13T13:22:02;22.80;67.90
67899;DHT22;54699;51.796;10.956;2023-10-13T13:24:30;22.80;67.90
67899;DHT22;54699;51.796;10.956;2023-10-13T13:26:57;22.80;67.80
67899;DHT22;54699;51.796;10.956;2023-10-13T13:29:28;22.80;68.00
67899;DHT22;54699;51.796;10.956;2023-10-13T13:31:56;22.80;68.00
67899;DHT22;54699;51.796;10.956;2023-10-13T13:34:23;22.80;68.00
67899;DHT22;54699;51.796;10.956;2023-10-13T13:36:51;22.90;68.20
67899;DHT22;54699;51.796;10.956;2023-10-13T13:39:20;22.90;67.50
67899;DHT22;54699;51.796;10.956;2023-10-13T13:41:55;22.90;67.80
67899;DHT22;54699;51.796;10.956;2023-10-13T13:44:23;23.00;67.80
67899;DHT22;54699;51.796;10.956;2023-10-13T13:46:55;23.00;67.90
67899;DHT22;54699;51.796;10.956;2023-10-13T13:49:23;23.00;67.80
67899;DHT22;54699;51.796;10.956;2023-10-13T13:51:55;23.00;67.90
67899;DHT22;54699;51.796;10.956;2023-10-13T13:54:30;23.00;68.20
67899;DHT22;54699;51.796;10.956;2023-10-13T13:56:57;23.00;68.30
67899;DHT22;54699;51.796;10.956;2023-10-13T13:59:24;23.00;68.30
67899;DHT22;54699;51.796;10.956;2023-10-13T14:01:51;23.00;68.30
67899;DHT22;54699;51.796;10.956;2023-10-13T14:04:18;23.00;68.70
67899;DHT22;54699;51.796;10.956;2023-10-13T14:06:45;23.00;69.10
67899;DHT22;54699;51.796;10.956;2023-10-13T14:09:12;23.00;69.30
67899;DHT22;54699;51.796;10.956;2023-10-13T14:11:59;23.00;69.10
67899;DHT22;54699;51.796;10.956;2023-10-13T14:14:57;23.00;69.40
67899;DHT22;54699;51.796;10.956;2023-10-13T14:17:26;23.00;69.50
67899;DHT22;54699;51.796;10.956;2023-10-13T14:19:55;23.00;69.50
67899;DHT22;54699;51.796;10.956;2023-10-13T14:22:23;23.00;69.10
67899;DHT22;54699;51.796;10.956;2023-10-13T14:24:51;22.90;68.30
67899;DHT22;54699;51.796;10.956;2023-10-13T14:27:22;23.00;68.70
67899;DHT22;54699;51.796;10.956;2023-10-13T14:29:51;22.90;68.70
67899;DHT22;54699;51.796;10.956;2023-10-13T14:32:19;22.90;68.70
67899;DHT22;54699;51.796;10.956;2023-10-13T14:34:49;23.00;69.00
67899;DHT22;54699;51.796;10.956;2023-10-13T14:37:21;22.90;69.20
67899;DHT22;54699;51.796;10.956;2023-10-13T14:39:54;22.90;69.40
67899;DHT22;54699;51.796;10.956;2023-10-13T14:42:24;23.00;68.90
67899;DHT22;54699;51.796;10.956;2023-10-13T14:44:51;22.90;69.20
67899;DHT22;54699;51.796;10.956;2023-10-13T14:47:22;23.00;69.50
67899;DHT22;54699;51.796;10.956;2023-10-13T14:49:51;23.00;69.30
67899;DHT22;54699;51.796;10.956;2023-10-13T14:52:21;23.00;69.40
67899;DHT22;54699;51.796;10.956;2023-10-13T14:54:48;23.00;69.80
67899;DHT22;54699;51.796;10.956;2023-10-13T14:57:20;23.00;70.70
67899;DHT22;54699;51.796;10.956;2023-10-13T14:59:51;23.00;69.60
67899;DHT22;54699;51.796;10.956;2023-10-13T15:02:19;23.00;69.30
67899;DHT22;54699;51.796;10.956;2023-10-13T15:04:46;23.00;69.60
67899;DHT22;54699;51.796;10.956;2023-10-13T15:07:14;22.90;69.50
67899;DHT22;54699;51.796;10.956;2023-10-13T15:09:42;22.90;69.50
67899;DHT22;54699;51.796;10.956;2023-10-13T15:12:09;23.00;69.40
67899;DHT22;54699;51.796;10.956;2023-10-13T15:14:37;23.00;69.40
67899;DHT22;54699;51.796;10.956;2023-10-13T15:17:06;22.90;69.30
67899;DHT22;54699;51.796;10.956;2023-10-13T15:19:32;22.90;69.20
67899;DHT22;54699;51.796;10.956;2023-10-13T15:22:01;22.90;69.40
67899;DHT22;54699;51.796;10.956;2023-10-13T15:24:31;22.90;69.00
67899;DHT22;54699;51.796;10.956;2023-10-13T15:27:03;22.90;69.20
67899;DHT22;54699;51.796;10.956;2023-10-13T15:29:34;22.90;69.40
67899;DHT22;54699;51.796;10.956;2023-10-13T15:32:02;22.90;69.70
67899;DHT22;54699;51.796;10.956;2023-10-13T15:34:47;22.90;69.80
67899;DHT22;54699;51.796;10.956;2023-10-13T15:37:15;22.90;69.50
67899;DHT22;54699;51.796;10.956;2023-10-13T15:39:41;22.80;69.70
67899;DHT22;54699;51.796;10.956;2023-10-13T15:42:08;22.90;69.70
67899;DHT22;54699;51.796;10.956;2023-10-13T15:44:35;22.80;69.60
67899;DHT22;54699;51.796;10.956;2023-10-13T15:47:02;22.80;69.40
67899;DHT22;54699;51.796;10.956;2023-10-13T15:49:30;22.80;69.60
67899;DHT22;54699;51.796;10.956;2023-10-13T15:52:00;22.80;69.60
67899;DHT22;54699;51.796;10.956;2023-10-13T15:54:29;22.80;69.60